Terminal Aerodrome Forecast
Issued by NWS

Home | Current Version | Previous Version | Text Only | Print | Product List | Glossary On
Versions: 1 2 3 4 5 6 7 8 9 10 11 12 13 14 15 16 17 18 19 20 21 22 23 24 25 26 27 28 29 30
000
FTAK31 PANC 290539
TAFACD
TAF
PACD 290539Z 2906/3006 36015KT P6SM SCT030 OVC040
      TEMPO 2906/2908 BKN025
     FM291200 VRB03KT 2SM BR BKN005 OVC012
     FM291900 12005KT P6SM FEW005 BKN035=

USA.gov is the U.S. government's official web portal to all federal, state and local government web resources and services.